Time;durP1;ratioP1;P1;durP2;ratioP2;P2;SDS_P1;SDS_P2;PMS_P1;PMS_P2;Temp;Humidity;BMP_temperature;BMP_pressure;BME280_temperature;BME280_humidity;BME280_pressure;Samples;Min_cycle;Max_cycle;Signal;HPM_P1;HPM_P2
2023/01/28 00:01:57;;;;;;;12.98;9.35;;;;;;;2.51;100.00;102723.31;5250288;28;20039;-69
2023/01/28 00:04:29;;;;;;;14.30;9.85;;;;;;;2.57;100.00;102728.53;5252572;28;20032;-69
2023/01/28 00:07:00;;;;;;;12.95;9.35;;;;;;;2.58;100.00;102730.25;5245085;28;20029;-69
2023/01/28 00:09:31;;;;;;;14.85;9.18;;;;;;;2.54;100.00;102728.56;5245549;28;20055;-69
2023/01/28 00:12:03;;;;;;;13.27;9.55;;;;;;;2.55;100.00;102730.28;5250222;28;20036;-71
2023/01/28 00:14:34;;;;;;;12.68;9.40;;;;;;;2.45;100.00;102736.56;5243802;28;20040;-71
2023/01/28 00:17:06;;;;;;;13.65;9.63;;;;;;;2.44;100.00;102735.72;5239246;28;20041;-71
2023/01/28 00:19:37;;;;;;;12.18;8.55;;;;;;;2.40;100.00;102741.00;5245956;28;20335;-71
2023/01/28 00:22:08;;;;;;;13.25;9.07;;;;;;;2.37;100.00;102739.28;5244056;28;20136;-71
2023/01/28 00:24:40;;;;;;;14.07;9.68;;;;;;;2.38;100.00;102734.88;5242443;28;20065;-71
2023/01/28 00:27:11;;;;;;;14.27;10.15;;;;;;;2.44;100.00;102737.47;5247091;28;20120;-70
2023/01/28 00:29:42;;;;;;;15.00;10.20;;;;;;;2.53;100.00;102737.34;5246377;28;20218;-71
2023/01/28 00:32:14;;;;;;;14.30;9.68;;;;;;;2.44;100.00;102740.97;5249653;28;20052;-71
2023/01/28 00:34:45;;;;;;;14.88;10.05;;;;;;;2.48;100.00;102741.81;5255488;28;20035;-71
2023/01/28 00:37:16;;;;;;;14.18;9.73;;;;;;;2.43;100.00;102749.75;5256038;28;20530;-71
2023/01/28 00:39:48;;;;;;;14.93;10.02;;;;;;;2.42;100.00;102750.66;5254195;28;20434;-71
2023/01/28 00:42:20;;;;;;;14.10;9.57;;;;;;;2.39;100.00;102750.69;5253988;28;20801;-71
2023/01/28 00:44:51;;;;;;;13.38;9.02;;;;;;;2.37;100.00;102756.88;5248911;28;20033;-71
2023/01/28 00:47:22;;;;;;;13.80;8.82;;;;;;;2.33;100.00;102756.03;5249445;28;20028;-71
2023/01/28 00:49:54;;;;;;;14.23;9.35;;;;;;;2.36;100.00;102756.00;5251628;28;20163;-71
2023/01/28 00:52:26;;;;;;;14.73;9.52;;;;;;;2.29;100.00;102756.97;5250890;28;20037;-71
2023/01/28 00:54:57;;;;;;;14.63;9.40;;;;;;;2.26;100.00;102752.59;5253835;28;20052;-71
2023/01/28 00:57:29;;;;;;;14.13;8.93;;;;;;;2.23;100.00;102755.25;5254596;28;20371;-71
2023/01/28 01:00:00;;;;;;;15.50;9.70;;;;;;;2.24;100.00;102748.22;5246160;28;20037;-70
2023/01/28 01:02:32;;;;;;;13.60;9.05;;;;;;;2.26;100.00;102754.34;5242623;28;20814;-70
2023/01/28 01:05:04;;;;;;;14.50;9.38;;;;;;;2.20;100.00;102765.81;5243483;28;20112;-70
2023/01/28 01:07:40;;;;;;;15.00;9.75;;;;;;;2.21;100.00;102766.72;5245576;28;20498;-70
2023/01/28 01:10:18;;;;;;;14.32;9.38;;;;;;;2.21;100.00;102764.06;5245580;28;20106;-71
2023/01/28 01:12:49;;;;;;;13.75;9.40;;;;;;;2.26;100.00;102759.63;5244174;28;20060;-70
2023/01/28 01:15:20;;;;;;;14.48;8.98;;;;;;;2.23;100.00;102763.16;5242015;28;20028;-71
2023/01/28 01:17:52;;;;;;;14.40;9.35;;;;;;;2.23;100.00;102750.00;5246028;28;20044;-70
2023/01/28 01:20:26;;;;;;;14.77;9.25;;;;;;;2.28;100.00;102756.09;5240175;28;20033;-71
2023/01/28 01:22:58;;;;;;;13.50;9.30;;;;;;;2.23;100.00;102757.03;5243278;28;20499;-71
2023/01/28 01:25:29;;;;;;;14.02;9.55;;;;;;;2.35;100.00;102751.63;5246803;28;20044;-70
2023/01/28 01:28:00;;;;;;;14.77;9.60;;;;;;;2.23;100.00;102763.16;5247152;28;20111;-71
2023/01/28 01:30:32;;;;;;;13.80;8.93;;;;;;;2.31;100.00;102757.81;5249746;28;20512;-71
2023/01/28 01:33:03;;;;;;;13.40;8.77;;;;;;;2.23;100.00;102747.34;5253318;28;20099;-71
2023/01/28 01:35:34;;;;;;;14.10;8.80;;;;;;;2.21;100.00;102750.91;5250106;28;20064;-70
2023/01/28 01:38:06;;;;;;;15.30;9.70;;;;;;;2.22;100.00;102750.88;5253790;28;20124;-70
2023/01/28 01:40:37;;;;;;;13.60;9.07;;;;;;;2.19;100.00;102748.28;5252565;28;20048;-71
2023/01/28 01:43:15;;;;;;;13.82;9.23;;;;;;;2.20;100.00;102742.13;5252798;28;20449;-71
2023/01/28 01:45:54;;;;;;;13.50;9.07;;;;;;;2.19;100.00;102755.28;5250432;28;20555;-71
2023/01/28 01:48:32;;;;;;;13.55;9.05;;;;;;;2.15;100.00;102755.34;5246020;28;20132;-71
2023/01/28 01:51:11;;;;;;;14.90;9.48;;;;;;;2.15;100.00;102759.75;5251091;28;20098;-71
2023/01/28 01:53:47;;;;;;;15.60;9.90;;;;;;;2.14;100.00;102758.84;5251976;28;20033;-71
2023/01/28 01:56:22;;;;;;;13.55;9.30;;;;;;;2.19;100.00;102761.47;5246468;28;20032;-71
2023/01/28 01:58:55;;;;;;;15.23;9.85;;;;;;;2.12;100.00;102762.41;5251641;28;20032;-70
2023/01/28 02:01:29;;;;;;;15.07;9.88;;;;;;;2.25;100.00;102760.53;5248015;28;20032;-70
2023/01/28 02:04:19;;;;;;;14.02;9.25;;;;;;;2.29;100.00;102764.84;5255687;28;20037;-71
2023/01/28 02:06:51;;;;;;;15.40;9.98;;;;;;;2.17;100.00;102763.22;5246607;28;20159;-71
2023/01/28 02:09:37;;;;;;;13.77;9.65;;;;;;;2.16;100.00;102759.69;5248637;28;20033;-71
2023/01/28 02:12:13;;;;;;;15.32;9.40;;;;;;;2.23;100.00;102759.66;5241973;28;20616;-70
2023/01/28 02:14:48;;;;;;;15.85;9.98;;;;;;;2.11;100.00;102765.91;5241178;28;20420;-71
2023/01/28 02:17:20;;;;;;;12.75;8.95;;;;;;;2.09;100.00;102768.59;5241307;28;20033;-70
2023/01/28 02:20:01;;;;;;;14.10;9.20;;;;;;;2.07;100.00;102769.47;5241472;28;20060;-71
2023/01/28 02:22:38;;;;;;;14.93;9.32;;;;;;;2.01;100.00;102773.03;5243534;28;20053;-70
2023/01/28 02:25:13;;;;;;;15.85;10.05;;;;;;;2.02;100.00;102761.63;5240571;28;20036;-70
2023/01/28 02:28:05;;;;;;;14.40;9.23;;;;;;;2.09;100.00;102760.69;5243269;28;20478;-70
2023/01/28 02:30:52;;;;;;;14.73;9.45;;;;;;;2.02;100.00;102764.25;5240679;28;20029;-70
2023/01/28 02:33:34;;;;;;;14.70;10.10;;;;;;;1.98;100.00;102752.00;5246748;28;20040;-70
2023/01/28 02:36:20;;;;;;;13.73;9.13;;;;;;;1.99;100.00;102761.63;5239148;28;20029;-70
2023/01/28 02:38:54;;;;;;;14.13;9.43;;;;;;;1.95;100.00;102758.16;5243640;28;20083;-71
2023/01/28 02:41:35;;;;;;;14.70;9.88;;;;;;;1.94;100.00;102758.19;5243445;28;20036;-70
2023/01/28 02:44:06;;;;;;;14.65;9.25;;;;;;;2.00;100.00;102759.91;5246894;28;20082;-71
2023/01/28 02:49:39;;;;;;;14.73;10.02;;;;;;;1.99;100.00;102753.75;5251507;28;20064;-70
2023/01/28 02:55:39;;;;;;;14.25;9.77;;;;;;;2.00;100.00;102765.16;5251099;28;20037;-71
2023/01/28 02:58:36;;;;;;;14.88;9.63;;;;;;;2.00;100.00;102775.69;5254733;28;20048;-71
2023/01/28 03:01:47;;;;;;;14.80;9.25;;;;;;;1.98;100.00;102774.84;5247737;28;20029;-70
2023/01/28 03:04:28;;;;;;;14.15;9.43;;;;;;;1.93;100.00;102759.94;5245538;28;20103;-70
2023/01/28 03:07:05;;;;;;;13.70;9.60;;;;;;;1.96;100.00;102780.13;5247414;28;20478;-71
2023/01/28 03:09:39;;;;;;;14.40;9.73;;;;;;;1.96;100.00;102774.84;5252191;28;20033;-70
2023/01/28 03:38:47;;;;;;;12.68;8.45;;;;;;;1.77;100.00;102785.53;5241229;28;20477;-70
2023/01/28 03:41:21;;;;;;;12.48;8.25;;;;;;;1.75;100.00;102776.78;5245780;28;20052;-70
2023/01/28 03:43:53;;;;;;;13.85;8.85;;;;;;;1.76;100.00;102778.53;5248209;28;20116;-70
2023/01/28 03:46:24;;;;;;;12.90;8.70;;;;;;;1.73;100.00;102777.69;5243805;28;20024;-70
2023/01/28 03:48:56;;;;;;;12.35;8.20;;;;;;;1.74;100.00;102780.28;5246705;28;20040;-70
2023/01/28 03:51:27;;;;;;;11.52;7.82;;;;;;;1.79;100.00;102779.41;5244669;28;20045;-70
2023/01/28 03:53:58;;;;;;;11.77;7.85;;;;;;;1.81;100.00;102777.63;5248321;28;20036;-70
2023/01/28 03:56:36;;;;;;;13.32;8.20;;;;;;;1.75;100.00;102778.53;5247575;28;20098;-70
2023/01/28 03:59:07;;;;;;;11.25;7.68;;;;;;;1.74;100.00;102782.91;5250983;28;20043;-70
2023/01/28 04:01:38;;;;;;;11.70;7.93;;;;;;;1.73;100.00;102791.72;5245256;28;20033;-70
2023/01/28 04:04:21;;;;;;;11.57;8.18;;;;;;;1.70;100.00;102796.13;5243148;28;20620;-70
2023/01/28 04:06:54;;;;;;;12.52;8.68;;;;;;;1.69;100.00;102799.66;5250724;28;21003;-70
2023/01/28 04:09:25;;;;;;;14.13;9.35;;;;;;;1.71;100.00;102804.00;5250603;28;20056;-71
2023/01/28 04:11:56;;;;;;;13.27;9.35;;;;;;;1.69;100.00;102802.28;5245842;28;20124;-71
2023/01/28 04:14:28;;;;;;;12.52;8.55;;;;;;;1.67;100.00;102804.91;5251416;28;20032;-71
2023/01/28 04:17:00;;;;;;;14.63;9.70;;;;;;;1.64;100.00;102806.69;5251091;28;20516;-70
2023/01/28 04:19:35;;;;;;;14.30;9.55;;;;;;;1.68;100.00;102797.91;5253268;28;20110;-75
2023/01/28 04:22:10;;;;;;;13.15;9.52;;;;;;;1.68;100.00;102806.66;5248289;28;20491;-75
2023/01/28 04:24:41;;;;;;;14.90;10.63;;;;;;;1.63;100.00;102805.84;5244207;28;20542;-75
2023/01/28 04:27:12;;;;;;;15.57;10.23;;;;;;;1.59;100.00;102804.09;5249304;28;20020;-75
2023/01/28 04:29:43;;;;;;;14.80;10.05;;;;;;;1.61;100.00;102809.34;5246439;28;20029;-75
2023/01/28 04:32:15;;;;;;;15.90;10.00;;;;;;;1.58;100.00;102799.72;5246034;28;20048;-75
2023/01/28 04:34:46;;;;;;;14.55;9.60;;;;;;;1.58;100.00;102802.34;5248199;28;20033;-75
2023/01/28 04:37:17;;;;;;;14.82;9.75;;;;;;;1.57;100.00;102800.59;5245423;28;20037;-75
2023/01/28 04:39:49;;;;;;;15.10;10.27;;;;;;;1.57;100.00;102808.47;5244714;28;20062;-75
2023/01/28 04:42:20;;;;;;;14.00;9.20;;;;;;;1.57;100.00;102803.22;5248541;28;20483;-75
2023/01/28 04:44:51;;;;;;;15.88;10.35;;;;;;;1.54;100.00;102803.25;5243193;28;20472;-75
2023/01/28 04:47:22;;;;;;;15.30;10.38;;;;;;;1.56;100.00;102804.13;5251339;28;20343;-74
2023/01/28 04:49:54;;;;;;;15.85;10.45;;;;;;;1.56;100.00;102793.59;5246600;28;21308;-75
2023/01/28 04:52:25;;;;;;;16.38;10.27;;;;;;;1.65;100.00;102797.91;5245464;28;20128;-75
2023/01/28 04:54:56;;;;;;;15.05;10.05;;;;;;;1.59;100.00;102806.72;5248450;28;20033;-75
2023/01/28 04:57:28;;;;;;;15.52;10.13;;;;;;;1.57;100.00;102797.97;5248371;28;20113;-75
2023/01/28 04:59:59;;;;;;;15.85;10.25;;;;;;;1.60;100.00;102804.97;5242025;28;20059;-75
2023/01/28 05:02:31;;;;;;;15.90;10.60;;;;;;;1.61;100.00;102804.97;5246057;28;20566;-75
2023/01/28 05:05:04;;;;;;;15.68;10.18;;;;;;;1.63;100.00;102807.56;5244368;28;20043;-75
2023/01/28 05:07:36;;;;;;;16.33;10.23;;;;;;;1.63;100.00;102813.72;5251125;28;20036;-75
2023/01/28 05:10:08;;;;;;;16.33;10.82;;;;;;;1.60;100.00;102816.38;5248390;28;20479;-75
2023/01/28 05:12:39;;;;;;;16.63;10.93;;;;;;;1.56;100.00;102804.13;5249549;28;20044;-75
2023/01/28 05:15:11;;;;;;;16.20;10.18;;;;;;;1.56;100.00;102812.03;5246325;28;20104;-75
2023/01/28 05:17:42;;;;;;;17.10;10.95;;;;;;;1.51;100.00;102812.03;5251006;28;20521;-75
2023/01/28 05:20:14;;;;;;;16.85;10.32;;;;;;;1.48;100.00;102813.84;5248256;28;20029;-75
2023/01/28 05:22:45;;;;;;;17.45;9.73;;;;;;;1.49;100.00;102823.47;5253464;28;20110;-75
2023/01/28 05:25:17;;;;;;;15.88;9.90;;;;;;;1.46;100.00;102815.56;5251073;28;20116;-75
2023/01/28 05:27:51;;;;;;;17.63;11.23;;;;;;;1.48;100.00;102813.84;5248052;28;20021;-74
2023/01/28 05:30:22;;;;;;;17.35;11.00;;;;;;;1.46;100.00;102810.31;5240474;28;20495;-75
2023/01/28 05:32:55;;;;;;;15.60;10.27;;;;;;;1.46;100.00;102810.31;5242969;28;20040;-74
2023/01/28 05:35:26;;;;;;;16.02;10.30;;;;;;;1.55;100.00;102805.00;5244442;28;20447;-74
2023/01/28 05:37:58;;;;;;;16.30;10.52;;;;;;;1.47;100.00;102806.81;5253787;28;20540;-75
2023/01/28 05:40:29;;;;;;;16.63;10.32;;;;;;;1.44;100.00;102801.56;5247843;28;20620;-74
2023/01/28 05:43:00;;;;;;;15.02;9.57;;;;;;;1.43;100.00;102799.84;5253195;28;20509;-75
2023/01/28 05:45:32;;;;;;;16.13;10.27;;;;;;;1.43;100.00;102803.31;5256983;28;20048;-74
2023/01/28 05:48:03;;;;;;;15.50;10.13;;;;;;;1.42;100.00;102800.69;5249797;28;20371;-75
2023/01/28 05:50:35;;;;;;;15.68;10.32;;;;;;;1.43;100.00;102794.56;5248491;28;20791;-75
2023/01/28 05:53:06;;;;;;;16.40;10.10;;;;;;;1.42;100.00;102803.34;5250682;28;20139;-75
2023/01/28 05:55:38;;;;;;;14.27;9.52;;;;;;;1.37;100.00;102800.75;5244609;28;20035;-75
2023/01/28 05:58:09;;;;;;;15.07;9.75;;;;;;;1.35;100.00;102806.00;5244061;28;20075;-75
2023/01/28 06:00:40;;;;;;;14.38;9.50;;;;;;;1.35;100.00;102807.78;5244924;28;20029;-75
2023/01/28 06:03:12;;;;;;;12.18;8.23;;;;;;;1.32;100.00;102808.69;5244660;28;20020;-74
2023/01/28 06:05:43;;;;;;;13.07;8.40;;;;;;;1.33;100.00;102814.81;5247160;28;20032;-75
2023/01/28 06:08:14;;;;;;;13.05;9.02;;;;;;;1.36;100.00;102815.66;5247335;28;20123;-75
2023/01/28 06:10:46;;;;;;;12.45;8.32;;;;;;;1.35;100.00;102816.53;5246396;28;20036;-75
2023/01/28 06:13:17;;;;;;;11.02;7.38;;;;;;;1.35;100.00;102824.41;5254790;28;20028;-74
2023/01/28 06:15:49;;;;;;;12.18;8.25;;;;;;;1.35;100.00;102824.41;5251614;28;20037;-75
2023/01/28 06:18:21;;;;;;;12.77;8.65;;;;;;;1.46;100.00;102816.47;5254003;28;20029;-75
2023/01/28 06:20:52;;;;;;;13.00;8.30;;;;;;;1.36;100.00;102827.91;5249254;28;20025;-74
2023/01/28 06:23:23;;;;;;;11.50;7.95;;;;;;;1.30;100.00;102822.69;5252668;28;20025;-75
2023/01/28 06:25:55;;;;;;;12.82;8.55;;;;;;;1.34;100.00;102820.06;5245089;28;20037;-75
2023/01/28 06:28:27;;;;;;;12.77;7.78;;;;;;;1.27;100.00;102820.97;5254588;28;20031;-74
2023/01/28 06:30:58;;;;;;;11.38;7.50;;;;;;;1.27;100.00;102825.38;5251089;28;20032;-75
2023/01/28 06:33:29;;;;;;;11.80;8.23;;;;;;;1.28;100.00;102827.09;5255047;28;20493;-74
2023/01/28 06:36:02;;;;;;;13.57;9.25;;;;;;;1.28;100.00;102830.59;5252633;28;20463;-75
2023/01/28 06:38:34;;;;;;;13.30;8.75;;;;;;;1.24;100.00;102817.47;5248457;28;20516;-75
2023/01/28 06:41:05;;;;;;;12.35;8.63;;;;;;;1.37;100.00;102820.03;5253052;28;20040;-75
2023/01/28 06:43:36;;;;;;;12.98;8.93;;;;;;;1.31;100.00;102824.47;5254468;28;20511;-75
2023/01/28 06:46:07;;;;;;;14.20;8.88;;;;;;;1.38;100.00;102831.41;5251064;28;20474;-75
2023/01/28 06:48:39;;;;;;;13.73;9.05;;;;;;;1.36;100.00;102835.81;5246671;28;20458;-74
2023/01/28 06:51:10;;;;;;;14.10;9.10;;;;;;;1.33;100.00;102836.72;5249812;28;20372;-75
2023/01/28 06:53:41;;;;;;;13.00;9.27;;;;;;;1.32;100.00;102844.59;5249788;28;20560;-75
2023/01/28 06:56:13;;;;;;;13.27;8.63;;;;;;;1.30;100.00;102839.34;5251016;28;20029;-75
2023/01/28 06:58:44;;;;;;;13.85;8.70;;;;;;;1.34;100.00;102835.84;5253091;28;20028;-75
2023/01/28 07:01:16;;;;;;;14.65;9.27;;;;;;;1.36;100.00;102836.69;5248053;28;20040;-75
2023/01/28 07:03:47;;;;;;;13.90;9.07;;;;;;;1.37;100.00;102834.94;5259323;28;20082;-75
2023/01/28 07:06:18;;;;;;;14.80;9.50;;;;;;;1.41;100.00;102838.44;5254875;28;20544;-75
2023/01/28 07:08:50;;;;;;;13.98;8.98;;;;;;;1.39;100.00;102842.81;5255864;28;20043;-75
2023/01/28 07:11:21;;;;;;;14.63;9.45;;;;;;;1.40;100.00;102848.09;5256280;28;20021;-75
2023/01/28 07:13:52;;;;;;;14.68;9.45;;;;;;;1.31;100.00;102842.88;5255481;28;20059;-75
2023/01/28 07:16:24;;;;;;;16.17;9.77;;;;;;;1.32;100.00;102848.13;5255613;28;20032;-75
2023/01/28 07:18:55;;;;;;;15.65;9.98;;;;;;;1.30;100.00;102849.00;5252491;28;20048;-75
2023/01/28 07:21:26;;;;;;;15.05;9.65;;;;;;;1.29;100.00;102855.16;5255539;28;20778;-74
2023/01/28 07:23:57;;;;;;;14.15;10.00;;;;;;;1.35;100.00;102857.75;5257034;28;20478;-75
2023/01/28 07:26:29;;;;;;;15.00;9.60;;;;;;;1.34;100.00;102864.78;5256226;28;20106;-74
2023/01/28 07:29:01;;;;;;;15.60;10.10;;;;;;;1.31;100.00;102869.16;5255319;28;20041;-75
2023/01/28 07:31:32;;;;;;;13.82;9.27;;;;;;;1.24;100.00;102868.31;5252812;28;20094;-74
2023/01/28 07:34:04;;;;;;;16.25;10.13;;;;;;;1.24;100.00;102873.56;5263652;28;20397;-75
2023/01/28 07:36:35;;;;;;;14.50;9.55;;;;;;;1.15;100.00;102873.59;5256749;28;20482;-75
2023/01/28 07:39:07;;;;;;;15.48;9.45;;;;;;;1.14;100.00;102874.50;5256061;28;20033;-75
2023/01/28 07:41:38;;;;;;;14.05;9.45;;;;;;;1.18;100.00;102876.22;5252816;28;20055;-75
2023/01/28 07:44:09;;;;;;;15.50;9.20;;;;;;;1.24;100.00;102863.03;5255023;28;20025;-75
2023/01/28 07:46:41;;;;;;;17.38;10.48;;;;;;;1.13;100.00;102871.00;5251806;28;20036;-75
2023/01/28 07:49:12;;;;;;;15.57;9.38;;;;;;;1.16;100.00;102870.09;5253573;28;20027;-75
2023/01/28 07:51:45;;;;;;;14.77;9.52;;;;;;;1.14;100.00;102874.50;5251000;28;20116;-75
2023/01/28 07:54:17;;;;;;;15.10;9.75;;;;;;;1.16;100.00;102876.22;5251338;28;20062;-75
2023/01/28 07:56:48;;;;;;;15.07;10.00;;;;;;;1.20;100.00;102884.13;5253422;28;20112;-74
2023/01/28 07:59:19;;;;;;;15.57;9.77;;;;;;;1.19;100.00;102880.63;5256416;28;20031;-75
2023/01/28 08:01:52;;;;;;;15.77;10.40;;;;;;;1.17;100.00;102891.13;5250464;28;20029;-75
2023/01/28 08:04:24;;;;;;;17.73;9.77;;;;;;;1.16;100.00;102886.75;5251315;28;20179;-74
2023/01/28 08:06:56;;;;;;;15.77;10.32;;;;;;;1.12;100.00;102886.78;5254416;28;20499;-75
2023/01/28 08:09:28;;;;;;;15.52;9.85;;;;;;;1.10;100.00;102881.53;5253474;28;20246;-75
2023/01/28 08:12:01;;;;;;;15.63;10.18;;;;;;;1.12;100.00;102889.41;5255007;28;20032;-75
2023/01/28 08:14:32;;;;;;;15.90;9.52;;;;;;;1.13;100.00;102891.13;5251240;28;20491;-75
2023/01/28 08:17:04;;;;;;;15.68;8.93;;;;;;;1.11;100.00;102893.81;5250378;28;20094;-75
2023/01/28 08:19:35;;;;;;;14.77;9.73;;;;;;;1.13;100.00;102909.53;5254620;28;20043;-74
2023/01/28 08:22:06;;;;;;;15.73;9.57;;;;;;;1.17;100.00;102911.31;5242016;28;20048;-74
2023/01/28 08:24:37;;;;;;;15.65;9.93;;;;;;;1.23;100.00;102916.53;5248854;28;20112;-75
2023/01/28 08:27:09;;;;;;;13.05;8.75;;;;;;;1.18;100.00;102923.56;5242859;28;20430;-75
2023/01/28 08:29:40;;;;;;;17.20;9.63;;;;;;;1.18;100.00;102927.06;5244339;28;20025;-75
2023/01/28 08:32:11;;;;;;;15.32;9.52;;;;;;;1.20;100.00;102906.00;5241984;28;20148;-75
2023/01/28 08:34:42;;;;;;;16.13;10.02;;;;;;;1.30;100.00;102917.38;5250819;28;20042;-75
2023/01/28 08:37:14;;;;;;;17.55;10.38;;;;;;;1.30;100.00;102923.50;5250789;28;20136;-75
2023/01/28 08:39:45;;;;;;;16.90;9.88;;;;;;;1.41;100.00;102914.69;5246965;28;20037;-75
2023/01/28 08:42:17;;;;;;;16.80;10.48;;;;;;;1.41;100.00;102922.59;5252801;28;20490;-75
2023/01/28 08:44:48;;;;;;;15.07;10.15;;;;;;;1.39;100.00;102925.22;5244838;28;20039;-75
2023/01/28 08:47:19;;;;;;;16.58;10.70;;;;;;;1.39;100.00;102934.88;5250114;28;20029;-75
2023/01/28 08:49:50;;;;;;;14.98;9.88;;;;;;;1.36;100.00;102927.84;5248856;28;20040;-75
2023/01/28 08:52:22;;;;;;;15.35;9.77;;;;;;;1.33;100.00;102934.00;5253774;28;20040;-75
2023/01/28 08:54:53;;;;;;;16.27;10.07;;;;;;;1.37;100.00;102930.47;5253271;28;20387;-74
2023/01/28 08:57:24;;;;;;;15.65;10.25;;;;;;;1.42;100.00;102934.84;5243788;28;20407;-74
2023/01/28 08:59:55;;;;;;;15.15;10.00;;;;;;;1.37;100.00;102930.47;5244406;28;20719;-75
2023/01/28 09:02:27;;;;;;;16.10;10.10;;;;;;;1.51;100.00;102943.56;5252423;28;20510;-74
2023/01/28 09:04:58;;;;;;;14.50;10.13;;;;;;;1.44;100.00;102944.50;5252962;28;20067;-75
2023/01/28 09:07:30;;;;;;;15.50;10.30;;;;;;;1.42;100.00;102938.38;5248311;28;20391;-74
2023/01/28 09:10:03;;;;;;;14.25;9.90;;;;;;;1.39;100.00;102935.75;5251385;28;20033;-74
2023/01/28 09:12:35;;;;;;;17.15;10.38;;;;;;;1.37;100.00;102940.13;5253478;28;20570;-74
2023/01/28 09:15:07;;;;;;;16.27;10.35;;;;;;;1.40;100.00;102952.38;5252594;28;20025;-74
2023/01/28 09:17:39;;;;;;;17.35;11.27;;;;;;;1.42;100.00;102948.91;5249275;28;20033;-75
2023/01/28 09:20:11;;;;;;;16.73;10.93;;;;;;;1.45;100.00;102940.97;5251585;28;20028;-75
2023/01/28 09:22:43;;;;;;;16.23;10.93;;;;;;;1.45;100.00;102959.38;5258608;28;20049;-75
2023/01/28 09:25:14;;;;;;;19.10;12.60;;;;;;;1.40;100.00;102950.66;5251384;28;20467;-75
2023/01/28 09:27:45;;;;;;;16.60;10.73;;;;;;;1.41;100.00;102952.38;5252414;28;20028;-75
2023/01/28 09:30:17;;;;;;;15.50;10.27;;;;;;;1.38;100.00;102952.38;5252834;28;20033;-75
2023/01/28 09:32:50;;;;;;;15.60;9.88;;;;;;;1.47;100.00;102948.84;5247048;28;20269;-75
2023/01/28 09:35:21;;;;;;;17.95;11.20;;;;;;;1.46;100.00;102962.88;5254301;28;20059;-75
2023/01/28 09:37:55;;;;;;;17.38;10.57;;;;;;;1.42;100.00;102971.66;5250075;28;20063;-75
2023/01/28 09:40:43;;;;;;;16.90;10.65;;;;;;;1.43;100.00;102973.44;5248123;28;20029;-75
2023/01/28 09:43:26;;;;;;;16.10;10.48;;;;;;;1.42;100.00;102975.19;5256385;28;20497;-75
2023/01/28 09:46:01;;;;;;;16.55;11.10;;;;;;;1.37;100.00;102980.44;5251369;28;20025;-75
2023/01/28 09:48:37;;;;;;;19.27;10.85;;;;;;;1.37;100.00;102974.31;5251408;28;20039;-75
2023/01/28 09:51:16;;;;;;;16.90;10.63;;;;;;;1.39;100.00;102972.56;5251241;28;20020;-75
2023/01/28 09:53:51;;;;;;;15.20;10.45;;;;;;;1.44;100.00;102969.91;5251690;28;20108;-75
2023/01/28 09:56:36;;;;;;;18.45;10.95;;;;;;;1.44;100.00;102975.16;5253346;28;20463;-75
2023/01/28 09:59:18;;;;;;;15.25;10.48;;;;;;;1.44;100.00;102985.69;5249259;28;20029;-75
2023/01/28 10:01:57;;;;;;;17.13;11.80;;;;;;;1.58;100.00;102973.38;5250148;28;20038;-75
2023/01/28 10:04:37;;;;;;;15.73;10.50;;;;;;;1.50;100.00;102978.66;5250488;28;20167;-75
2023/01/28 10:07:23;;;;;;;15.85;10.50;;;;;;;1.48;100.00;102992.72;5253401;28;20033;-75
2023/01/28 10:10:05;;;;;;;15.10;10.43;;;;;;;1.49;100.00;102989.19;5258789;28;20060;-75
2023/01/28 10:12:48;;;;;;;16.05;10.45;;;;;;;1.49;100.00;102999.72;5251066;28;20080;-75
2023/01/28 10:15:46;;;;;;;15.73;10.52;;;;;;;1.52;100.00;102997.06;5257963;28;20024;-75
2023/01/28 10:18:28;;;;;;;16.42;10.77;;;;;;;1.51;100.00;103004.06;5252663;28;20029;-75
2023/01/28 10:21:41;;;;;;;15.25;9.82;;;;;;;1.50;100.00;103001.47;5249159;28;20037;-74
2023/01/28 10:24:22;;;;;;;15.02;10.30;;;;;;;1.45;99.87;103004.09;5254567;28;20049;-75
2023/01/28 10:26:55;;;;;;;14.77;10.35;;;;;;;1.42;100.00;103005.84;5249223;28;20029;-75
2023/01/28 10:29:31;;;;;;;17.25;10.93;;;;;;;1.46;100.00;103013.75;5249862;28;20062;-74
2023/01/28 10:32:12;;;;;;;14.63;10.13;;;;;;;1.40;99.58;103007.63;5248222;28;20039;-74
2023/01/28 10:34:43;;;;;;;15.82;10.27;;;;;;;1.37;100.00;102996.22;5248662;28;20036;-74
2023/01/28 10:37:15;;;;;;;12.25;9.05;;;;;;;1.41;100.00;102990.97;5251993;28;20037;-75
2023/01/28 10:39:46;;;;;;;15.98;10.10;;;;;;;1.41;100.00;102997.09;5255925;28;20060;-75
2023/01/28 10:42:30;;;;;;;14.95;10.40;;;;;;;1.42;100.00;102993.59;5256375;28;20040;-75
2023/01/28 10:45:05;;;;;;;14.10;9.23;;;;;;;1.45;100.00;102995.34;5255781;28;20028;-75
2023/01/28 10:47:45;;;;;;;13.43;8.93;;;;;;;1.45;100.00;102990.94;5246910;28;20482;-74
2023/01/28 10:50:22;;;;;;;14.02;8.98;;;;;;;1.46;100.00;102997.06;5252586;28;20033;-75
2023/01/28 10:52:58;;;;;;;14.20;8.98;;;;;;;1.46;99.28;102983.91;5252987;28;20471;-75
2023/01/28 10:55:33;;;;;;;12.38;8.82;;;;;;;1.47;100.00;102990.94;5249443;28;20053;-75
2023/01/28 10:58:16;;;;;;;14.27;9.32;;;;;;;1.49;100.00;102987.41;5243283;28;20329;-75
2023/01/28 11:00:53;;;;;;;14.02;9.82;;;;;;;1.51;100.00;102979.53;5247374;28;20043;-75
2023/01/28 11:03:29;;;;;;;14.32;9.43;;;;;;;1.53;100.00;102991.81;5253693;28;20029;-75
2023/01/28 11:06:01;;;;;;;13.90;9.25;;;;;;;1.59;100.00;102988.25;5249191;28;20035;-75
2023/01/28 11:08:42;;;;;;;12.95;8.88;;;;;;;1.56;100.00;102996.19;5249410;28;20025;-75
2023/01/28 11:11:14;;;;;;;13.63;9.02;;;;;;;1.58;100.00;102991.78;5255048;28;20480;-75
2023/01/28 11:13:52;;;;;;;14.70;8.95;;;;;;;1.66;100.00;102983.84;5249617;28;20034;-75
2023/01/28 11:16:24;;;;;;;14.32;9.25;;;;;;;1.55;100.00;102986.53;5252017;28;20506;-75
2023/01/28 11:19:01;;;;;;;14.15;8.88;;;;;;;1.59;100.00;102983.00;5257218;28;20414;-75
2023/01/28 11:21:34;;;;;;;13.93;8.63;;;;;;;1.58;100.00;102976.00;5256124;28;20052;-75
2023/01/28 11:24:18;;;;;;;13.63;8.93;;;;;;;1.60;100.00;102973.38;5255192;28;20032;-75
2023/01/28 11:26:53;;;;;;;14.80;9.35;;;;;;;1.63;100.00;102976.84;5250093;28;20028;-75
2023/01/28 11:29:30;;;;;;;;;;;;;;;1.71;100.00;102969.78;5258457;28;20032;-75
2023/01/28 11:32:01;;;;;;;14.32;8.85;;;;;;;1.66;100.00;102960.16;5251511;28;19987;-75
2023/01/28 11:34:34;;;;;;;14.02;9.15;;;;;;;1.65;100.00;102951.41;5257292;28;20046;-75
2023/01/28 11:37:17;;;;;;;12.98;8.50;;;;;;;1.64;100.00;102952.28;5253523;28;20474;-75
2023/01/28 11:40:03;;;;;;;14.32;8.80;;;;;;;1.64;100.00;102954.03;5255937;28;20033;-75
2023/01/28 11:42:35;;;;;;;13.13;8.73;;;;;;;1.61;99.46;102947.06;5257375;28;20353;-75
2023/01/28 11:45:16;;;;;;;14.52;9.13;;;;;;;1.66;99.92;102941.75;5256480;28;20403;-75
2023/01/28 11:48:09;;;;;;;15.65;9.00;;;;;;;1.67;100.00;102952.28;5254424;28;20024;-75
2023/01/28 11:50:56;;;;;;;12.75;8.45;;;;;;;1.71;100.00;102932.94;5250387;28;20798;-75
2023/01/28 11:53:59;;;;;;;14.13;9.10;;;;;;;1.76;100.00;102918.03;5254947;28;21190;-75
2023/01/28 11:56:48;;;;;;;15.23;9.43;;;;;;;1.90;100.00;102912.66;5254747;28;20028;-75
2023/01/28 11:59:41;;;;;;;16.52;10.43;;;;;;;1.90;100.00;102902.13;5256450;28;20032;-75
2023/01/28 12:02:24;;;;;;;16.23;9.85;;;;;;;2.00;100.00;102884.50;5253799;28;20383;-75
2023/01/28 12:05:27;;;;;;;14.63;9.55;;;;;;;2.06;100.00;102868.66;5256301;28;20031;-75
2023/01/28 12:07:59;;;;;;;14.77;9.60;;;;;;;2.12;100.00;102855.41;5253280;28;20032;-75
2023/01/28 12:10:35;;;;;;;15.10;9.82;;;;;;;2.25;100.00;102843.03;5257802;28;20364;-75
2023/01/28 12:13:21;;;;;;;14.38;9.45;;;;;;;2.20;100.00;102852.72;5256456;28;20035;-75
2023/01/28 12:16:08;;;;;;;15.75;9.70;;;;;;;2.14;100.00;102856.28;5255641;28;20020;-75
2023/01/28 12:19:19;;;;;;;14.73;9.32;;;;;;;2.22;100.00;102855.34;5253895;28;20036;-75
2023/01/28 12:22:25;;;;;;;16.00;10.75;;;;;;;2.20;100.00;102855.34;5237998;28;20121;-76